createdAt,value
2019-01-03T00:01:50.814Z,100317.74
2019-01-03T00:04:37.737Z,100321.92
2019-01-03T00:07:25.327Z,100321.90
2019-01-03T00:10:11.857Z,100323.55
2019-01-03T00:13:17.923Z,100329.89
2019-01-03T00:16:06.059Z,100336.61
2019-01-03T00:18:56.734Z,100340.84
2019-01-03T00:21:44.943Z,100340.02
2019-01-03T00:24:44.486Z,100335.77
2019-01-03T00:27:35.309Z,100333.64
2019-01-03T00:30:26.353Z,100325.58
2019-01-03T00:33:07.816Z,100329.78
2019-01-03T00:35:55.413Z,100336.49
2019-01-03T00:38:49.021Z,100333.98
2019-01-03T00:41:37.575Z,100335.22
2019-01-03T00:44:41.591Z,100333.89
2019-01-03T00:47:29.479Z,100331.83
2019-01-03T00:50:15.892Z,100335.20
2019-01-03T00:53:06.507Z,100336.83
2019-01-03T00:55:52.784Z,100336.38
2019-01-03T00:58:58.853Z,100338.91
2019-01-03T01:01:52.112Z,100350.78
2019-01-03T01:04:42.953Z,100344.77
2019-01-03T01:07:29.472Z,100341.41
2019-01-03T01:10:16.526Z,100346.88
2019-01-03T01:13:02.744Z,100348.95
2019-01-03T01:15:48.809Z,100359.03
2019-01-03T01:18:39.714Z,100359.84
2019-01-03T01:21:42.612Z,100361.53
2019-01-03T01:24:30.826Z,100365.37
2019-01-03T01:27:18.420Z,100363.20
2019-01-03T01:30:15.357Z,100369.93
2019-01-03T01:33:17.214Z,100374.11
2019-01-03T01:36:11.305Z,100377.48
2019-01-03T01:38:52.806Z,100381.33
2019-01-03T01:41:39.831Z,100376.64
2019-01-03T01:44:36.382Z,100373.66
2019-01-03T01:47:24.032Z,100384.20
2019-01-03T01:50:10.498Z,100386.76
2019-01-03T01:52:57.902Z,100378.73
2019-01-03T01:55:49.138Z,100382.44
2019-01-03T01:58:36.974Z,100384.97
2019-01-03T02:01:31.085Z,100388.31
2019-01-03T02:04:17.037Z,100382.39
2019-01-03T02:07:07.458Z,100390.41
2019-01-03T02:09:51.483Z,100389.53
2019-01-03T02:12:38.642Z,100390.45
2019-01-03T02:15:29.188Z,100390.44
2019-01-03T02:18:17.397Z,100393.72
2019-01-03T02:21:11.314Z,100393.30
2019-01-03T02:24:05.360Z,100394.52
2019-01-03T02:26:51.742Z,100395.36
2019-01-03T02:29:38.334Z,100392.77
2019-01-03T02:32:14.991Z,100393.25
2019-01-03T02:35:05.262Z,100402.17
2019-01-03T02:38:00.125Z,100401.77
2019-01-03T02:40:46.386Z,100399.55
2019-01-03T02:43:40.122Z,100408.03
2019-01-03T02:46:30.499Z,100402.13
2019-01-03T02:49:17.193Z,100409.55
2019-01-03T02:51:56.223Z,100406.47
2019-01-03T02:54:56.186Z,100411.71
2019-01-03T02:57:53.482Z,100405.78
2019-01-03T03:00:40.464Z,100401.63
2019-01-03T03:03:43.645Z,100403.72
2019-01-03T03:06:30.569Z,100409.91
2019-01-03T03:09:22.092Z,100404.02
2019-01-03T03:12:06.421Z,100398.09
2019-01-03T03:14:57.353Z,100391.37
2019-01-03T03:17:45.041Z,100388.95
2019-01-03T03:20:31.531Z,100392.32
2019-01-03T03:23:25.105Z,100391.06
2019-01-03T03:26:27.789Z,100390.23
2019-01-03T03:29:15.581Z,100384.34
2019-01-03T03:32:02.084Z,100382.69
2019-01-03T03:34:49.108Z,100381.80
2019-01-03T03:37:48.845Z,100377.66
2019-01-03T03:40:54.660Z,100375.09
2019-01-03T03:43:41.987Z,100375.84
2019-01-03T03:46:22.729Z,100372.52
2019-01-03T03:49:19.555Z,100373.81
2019-01-03T03:52:19.197Z,100365.41
2019-01-03T03:55:22.110Z,100370.91
2019-01-03T03:58:08.547Z,100369.63
2019-01-03T04:00:56.258Z,100361.59
2019-01-03T04:03:47.149Z,100363.75
2019-01-03T04:06:46.980Z,100350.63
2019-01-03T04:09:33.870Z,100356.61
2019-01-03T04:12:23.986Z,100355.77
2019-01-03T04:15:10.347Z,100355.79
2019-01-03T04:17:58.315Z,100358.73
2019-01-03T04:20:46.628Z,100355.77
2019-01-03T04:23:52.579Z,100349.05
2019-01-03T04:26:46.245Z,100350.34
2019-01-03T04:29:36.625Z,100340.95
2019-01-03T04:32:36.836Z,100344.81
2019-01-03T04:35:24.109Z,100334.27
2019-01-03T04:38:20.334Z,100333.89
2019-01-03T04:41:07.052Z,100335.09
2019-01-03T04:43:50.379Z,100335.55
2019-01-03T04:46:37.191Z,100337.20
2019-01-03T04:49:30.496Z,100333.00
2019-01-03T04:52:21.078Z,100325.78
2019-01-03T04:55:07.533Z,100321.55
2019-01-03T04:57:55.468Z,100317.79
2019-01-03T05:00:45.776Z,100317.41
2019-01-03T05:03:36.065Z,100322.87
2019-01-03T05:06:23.695Z,100329.16
2019-01-03T05:09:09.962Z,100338.47
2019-01-03T05:12:01.216Z,100338.87
2019-01-03T05:14:53.050Z,100335.55
2019-01-03T05:17:39.564Z,100336.81
2019-01-03T05:20:30.465Z,100333.45
2019-01-03T05:23:16.962Z,100336.92
2019-01-03T05:26:05.625Z,100337.72
2019-01-03T05:28:58.799Z,100331.39
2019-01-03T05:32:05.003Z,100331.34
2019-01-03T05:34:51.208Z,100332.55
2019-01-03T05:37:32.833Z,100325.05
2019-01-03T05:40:19.434Z,100325.92
2019-01-03T05:43:05.770Z,100321.27
2019-01-03T05:45:49.905Z,100324.47
2019-01-03T05:48:50.429Z,100332.50
2019-01-03T05:51:35.798Z,100341.23
2019-01-03T05:54:27.378Z,100351.42
2019-01-03T05:57:13.777Z,100358.16
2019-01-03T06:00:10.704Z,100349.72
2019-01-03T06:02:56.497Z,100351.83
2019-01-03T06:05:47.355Z,100353.52
2019-01-03T06:08:53.427Z,100345.95
2019-01-03T06:11:39.651Z,100362.42
2019-01-03T06:14:30.068Z,100353.16
2019-01-03T06:17:23.778Z,100358.63
2019-01-03T06:20:30.055Z,100359.45
2019-01-03T06:23:17.061Z,100357.01
2019-01-03T06:26:16.646Z,100357.03
2019-01-03T06:29:02.744Z,100363.80
2019-01-03T06:31:49.065Z,100371.36
2019-01-03T06:34:35.572Z,100378.55
2019-01-03T06:37:20.756Z,100379.02
2019-01-03T06:40:20.741Z,100382.69
2019-01-03T06:43:20.352Z,100385.19
2019-01-03T06:46:08.377Z,100381.83
2019-01-03T06:49:14.534Z,100381.67
2019-01-03T06:52:15.972Z,100385.47
2019-01-03T06:55:02.331Z,100382.09
2019-01-03T06:57:48.499Z,100385.73
2019-01-03T07:00:38.928Z,100392.05
2019-01-03T07:03:27.027Z,100395.84
2019-01-03T07:06:30.219Z,100404.11
2019-01-03T07:09:30.612Z,100407.74
2019-01-03T07:12:16.190Z,100409.28
2019-01-03T07:15:02.428Z,100408.91
2019-01-03T07:17:44.083Z,100404.84
2019-01-03T07:20:34.724Z,100405.78
2019-01-03T07:23:21.194Z,100400.09
2019-01-03T07:26:11.824Z,100403.95
2019-01-03T07:29:08.714Z,100405.23
2019-01-03T07:31:53.000Z,100403.56
2019-01-03T07:34:39.644Z,100401.42
2019-01-03T07:37:25.469Z,100404.36
2019-01-03T07:40:13.940Z,100411.19
2019-01-03T07:43:10.941Z,100407.70
2019-01-03T07:45:55.554Z,100403.83
2019-01-03T07:48:42.297Z,100404.00
2019-01-03T07:51:30.833Z,100407.97
2019-01-03T07:54:17.175Z,100410.99
2019-01-03T07:57:10.856Z,100422.64
2019-01-03T07:59:57.637Z,100424.48
2019-01-03T08:02:48.155Z,100426.42
2019-01-03T08:05:43.703Z,100418.86
2019-01-03T08:08:34.793Z,100428.05
2019-01-03T08:11:34.493Z,100434.59
2019-01-03T08:14:24.915Z,100436.30
2019-01-03T08:17:12.209Z,100438.09
2019-01-03T08:19:57.655Z,100437.69
2019-01-03T08:22:51.572Z,100429.69
2019-01-03T08:25:37.985Z,100431.22
2019-01-03T08:28:31.911Z,100440.46
2019-01-03T08:31:22.706Z,100438.86
2019-01-03T08:34:22.689Z,100437.66
2019-01-03T08:37:28.759Z,100450.78
2019-01-03T08:40:15.038Z,100449.05
2019-01-03T08:43:26.939Z,100457.98
2019-01-03T08:46:09.909Z,100451.67
2019-01-03T08:49:09.417Z,100452.58
2019-01-03T08:51:59.561Z,100449.74
2019-01-03T08:54:51.090Z,100454.10
2019-01-03T08:57:49.669Z,100451.13
2019-01-03T09:00:36.294Z,100445.33
2019-01-03T09:03:26.738Z,100446.63
2019-01-03T09:06:29.690Z,100444.08
2019-01-03T09:09:16.149Z,100436.47
2019-01-03T09:12:03.710Z,100442.42
2019-01-03T09:14:59.898Z,100444.13
2019-01-03T09:17:46.431Z,100445.39
2019-01-03T09:20:31.401Z,100439.48
2019-01-03T09:23:23.609Z,100431.89
2019-01-03T09:26:29.244Z,100434.86
2019-01-03T09:29:17.824Z,100435.71
2019-01-03T09:32:00.405Z,100434.84
2019-01-03T09:34:51.312Z,100436.56
2019-01-03T09:37:51.258Z,100433.61
2019-01-03T09:40:37.865Z,100432.74
2019-01-03T09:43:25.428Z,100428.11
2019-01-03T09:45:54.892Z,100421.33
2019-01-03T09:48:23.353Z,100421.75
2019-01-03T09:50:51.350Z,100421.75
2019-01-03T09:53:19.306Z,100416.70
2019-01-03T09:55:47.626Z,100418.38
2019-01-03T09:58:15.798Z,100416.67
2019-01-03T10:00:43.742Z,100413.73
2019-01-03T10:03:13.701Z,100418.38
2019-01-03T10:05:41.893Z,100413.28
2019-01-03T10:08:09.798Z,100415.81
2019-01-03T10:10:37.774Z,100413.70
2019-01-03T10:13:06.086Z,100422.53
2019-01-03T10:15:34.948Z,100421.23
2019-01-03T10:18:03.244Z,100422.09
2019-01-03T10:20:31.512Z,100415.31
2019-01-03T10:22:59.607Z,100409.34
2019-01-03T10:25:27.820Z,100414.88
2019-01-03T10:27:56.268Z,100404.25
2019-01-03T10:30:24.663Z,100402.89
2019-01-03T10:32:52.941Z,100399.97
2019-01-03T10:35:21.244Z,100400.36
2019-01-03T10:37:49.524Z,100401.63
2019-01-03T10:40:17.546Z,100399.92
2019-01-03T10:42:46.602Z,100400.72
2019-01-03T10:45:14.555Z,100389.36
2019-01-03T10:47:42.494Z,100393.22
2019-01-03T10:50:10.412Z,100379.64
2019-01-03T10:52:38.434Z,100384.33
2019-01-03T10:55:06.475Z,100369.91
2019-01-03T10:57:34.523Z,100364.93
2019-01-03T11:00:02.880Z,100359.41
2019-01-03T11:02:30.885Z,100364.28
2019-01-03T11:05:06.243Z,100368.36
2019-01-03T11:07:35.221Z,100375.63
2019-01-03T11:10:03.748Z,100368.63
2019-01-03T11:12:31.689Z,100369.02
2019-01-03T11:15:00.029Z,100364.84
2019-01-03T11:17:27.994Z,100355.34
2019-01-03T11:19:58.328Z,100354.59
2019-01-03T11:22:26.701Z,100347.42
2019-01-03T11:24:55.588Z,100345.92
2019-01-03T11:27:23.918Z,100343.55
2019-01-03T11:29:52.666Z,100348.31
2019-01-03T11:32:20.629Z,100340.73
2019-01-03T11:34:49.074Z,100333.83
2019-01-03T11:37:17.491Z,100326.16
2019-01-03T11:39:45.711Z,100326.27
2019-01-03T11:42:13.802Z,100329.16
2019-01-03T11:44:41.858Z,100318.27
2019-01-03T11:47:10.038Z,100319.85
2019-01-03T11:49:38.125Z,100315.69
2019-01-03T11:52:06.514Z,100311.31
2019-01-03T11:54:34.993Z,100306.53
2019-01-03T11:57:03.555Z,100306.02
2019-01-03T11:59:31.500Z,100306.02
2019-01-03T12:02:00.783Z,100297.27
2019-01-03T12:04:29.335Z,100293.88
2019-01-03T12:06:57.371Z,100287.83
2019-01-03T12:09:25.339Z,100279.45
2019-01-03T12:11:53.957Z,100275.63
2019-01-03T12:14:22.025Z,100282.95
2019-01-03T12:16:50.051Z,100276.97
2019-01-03T12:19:18.114Z,100272.98
2019-01-03T12:21:46.478Z,100279.52
2019-01-03T12:24:14.707Z,100274.77
2019-01-03T12:26:44.146Z,100275.95
2019-01-03T12:29:12.166Z,100277.91
2019-01-03T12:31:40.516Z,100273.49
2019-01-03T12:34:09.152Z,100271.42
2019-01-03T12:36:37.182Z,100272.36
2019-01-03T12:39:06.251Z,100268.77
2019-01-03T12:41:34.207Z,100267.91
2019-01-03T12:44:02.732Z,100269.73
2019-01-03T12:46:30.700Z,100271.47
2019-01-03T12:48:58.624Z,100277.83
2019-01-03T12:51:26.926Z,100275.40
2019-01-03T12:53:55.389Z,100273.45
2019-01-03T12:56:23.355Z,100272.04
2019-01-03T12:58:51.353Z,100273.84
2019-01-03T13:01:19.466Z,100263.20
2019-01-03T13:03:47.810Z,100258.99
2019-01-03T13:06:20.995Z,100257.41
2019-01-03T13:08:46.274Z,100252.34
2019-01-03T13:11:14.210Z,100254.53
2019-01-03T13:13:42.460Z,100249.38
2019-01-03T13:16:11.384Z,100245.39
2019-01-03T13:18:39.311Z,100244.21
2019-01-03T13:21:07.297Z,100244.29
2019-01-03T13:23:35.230Z,100253.19
2019-01-03T13:26:03.245Z,100254.02
2019-01-03T13:28:31.199Z,100251.05
2019-01-03T13:30:59.147Z,100253.22
2019-01-03T13:33:27.127Z,100250.33
2019-01-03T13:35:55.421Z,100253.80
2019-01-03T13:38:23.429Z,100254.02
2019-01-03T13:40:51.710Z,100255.77
2019-01-03T13:43:19.658Z,100261.80
2019-01-03T13:45:48.160Z,100272.03
2019-01-03T13:48:16.389Z,100264.41
2019-01-03T13:50:44.434Z,100265.34
2019-01-03T13:53:12.429Z,100261.98
2019-01-03T13:55:40.745Z,100262.44
2019-01-03T13:58:09.325Z,100268.48
2019-01-03T14:00:39.458Z,100266.28
2019-01-03T14:03:07.424Z,100267.59
2019-01-03T14:05:35.412Z,100266.34
2019-01-03T14:08:03.367Z,100267.97
2019-01-03T14:10:32.715Z,100265.36
2019-01-03T14:13:00.668Z,100269.59
2019-01-03T14:15:28.599Z,100265.03
2019-01-03T14:17:56.986Z,100262.88
2019-01-03T14:20:25.773Z,100269.21
2019-01-03T14:22:54.336Z,100272.67
2019-01-03T14:25:22.609Z,100273.08
2019-01-03T14:27:50.594Z,100279.78
2019-01-03T14:30:18.858Z,100286.58
2019-01-03T14:32:46.855Z,100277.31
2019-01-03T14:35:15.070Z,100281.56
2019-01-03T14:37:43.471Z,100285.94
2019-01-03T14:40:11.946Z,100284.23
2019-01-03T14:42:39.913Z,100275.86
2019-01-03T14:45:07.869Z,100277.47
2019-01-03T14:47:36.546Z,100281.25
2019-01-03T14:50:06.426Z,100279.95
2019-01-03T14:52:34.980Z,100277.30
2019-01-03T14:55:04.000Z,100275.13
2019-01-03T14:57:32.111Z,100276.15
2019-01-03T15:00:06.018Z,100285.04
2019-01-03T15:02:34.129Z,100282.39
2019-01-03T15:05:02.542Z,100280.61
2019-01-03T15:07:30.886Z,100285.30
2019-01-03T15:09:58.845Z,100296.34
2019-01-03T15:12:26.832Z,100292.18
2019-01-03T15:14:55.159Z,100295.98
2019-01-03T15:17:23.087Z,100292.08
2019-01-03T15:19:51.301Z,100295.45
2019-01-03T15:22:19.523Z,100298.33
2019-01-03T15:24:47.827Z,100295.83
2019-01-03T15:27:15.817Z,100305.56
2019-01-03T15:29:44.579Z,100311.61
2019-01-03T15:32:13.094Z,100301.87
2019-01-03T15:34:41.514Z,100304.48
2019-01-03T15:37:09.457Z,100297.70
2019-01-03T15:39:37.426Z,100300.23
2019-01-03T15:42:05.443Z,100293.52
2019-01-03T15:44:34.231Z,100292.29
2019-01-03T15:47:02.558Z,100291.87
2019-01-03T15:49:30.816Z,100297.39
2019-01-03T15:51:59.789Z,100294.92
2019-01-03T15:54:27.962Z,100305.47
2019-01-03T15:56:56.256Z,100305.04
2019-01-03T15:59:24.518Z,100298.25
2019-01-03T16:01:52.454Z,100307.12
2019-01-03T16:04:20.871Z,100308.84
2019-01-03T16:06:48.775Z,100311.31
2019-01-03T16:09:17.229Z,100308.41
2019-01-03T16:11:45.408Z,100311.41
2019-01-03T16:14:13.377Z,100308.02
2019-01-03T16:16:42.966Z,100310.53
2019-01-03T16:19:10.919Z,100309.69
2019-01-03T16:21:39.604Z,100308.86
2019-01-03T16:24:09.395Z,100302.10
2019-01-03T16:26:37.456Z,100300.36
2019-01-03T16:29:05.738Z,100303.35
2019-01-03T16:31:34.019Z,100302.92
2019-01-03T16:34:02.293Z,100300.38
2019-01-03T16:36:30.273Z,100299.97
2019-01-03T16:38:58.300Z,100299.48
2019-01-03T16:41:26.227Z,100303.76
2019-01-03T16:43:54.290Z,100308.41
2019-01-03T16:46:22.580Z,100299.50
2019-01-03T16:48:50.563Z,100304.64
2019-01-03T16:51:19.382Z,100291.91
2019-01-03T16:53:47.996Z,100297.86
2019-01-03T16:56:16.091Z,100294.47
2019-01-03T16:58:44.713Z,100285.58
2019-01-03T17:01:13.175Z,100287.33
2019-01-03T17:03:42.221Z,100284.30
2019-01-03T17:06:10.502Z,100286.45
2019-01-03T17:08:38.774Z,100295.77
2019-01-03T17:11:07.051Z,100286.43
2019-01-03T17:13:35.235Z,100295.73
2019-01-03T17:16:03.503Z,100288.12
2019-01-03T17:18:31.473Z,100289.39
2019-01-03T17:20:59.418Z,100288.55
2019-01-03T17:23:27.548Z,100290.25
2019-01-03T17:25:55.490Z,100294.45
2019-01-03T17:28:23.449Z,100296.12
2019-01-03T17:30:51.726Z,100293.13
2019-01-03T17:33:19.672Z,100286.80
2019-01-03T17:35:48.164Z,100296.55
2019-01-03T17:38:16.082Z,100291.05
2019-01-03T17:40:44.428Z,100293.56
2019-01-03T17:43:12.319Z,100303.34
2019-01-03T17:45:41.226Z,100303.75
2019-01-03T17:48:09.198Z,100301.57
2019-01-03T17:50:37.047Z,100299.04
2019-01-03T17:53:05.274Z,100303.30
2019-01-03T17:55:33.417Z,100305.41
2019-01-03T17:58:01.895Z,100302.90
2019-01-03T18:00:30.013Z,100302.04
2019-01-03T18:02:57.956Z,100308.80
2019-01-03T18:05:25.984Z,100313.04
2019-01-03T18:07:54.662Z,100316.39
2019-01-03T18:10:22.945Z,100321.48
2019-01-03T18:12:51.179Z,100310.92
2019-01-03T18:15:19.228Z,100318.13
2019-01-03T18:17:47.159Z,100318.09
2019-01-03T18:20:17.075Z,100315.05
2019-01-03T18:22:45.320Z,100316.30
2019-01-03T18:25:13.544Z,100318.80
2019-01-03T18:27:41.879Z,100314.54
2019-01-03T18:30:12.247Z,100313.67
2019-01-03T18:32:41.244Z,100314.17
2019-01-03T18:35:09.245Z,100317.17
2019-01-03T18:37:37.176Z,100313.23
2019-01-03T18:40:07.841Z,100309.39
2019-01-03T18:42:36.626Z,100316.05
2019-01-03T18:45:07.869Z,100314.02
2019-01-03T18:47:36.174Z,100319.58
2019-01-03T18:50:06.839Z,100324.70
2019-01-03T18:52:35.235Z,100317.97
2019-01-03T18:55:03.618Z,100323.44
2019-01-03T18:57:31.897Z,100322.96
2019-01-03T19:00:00.251Z,100323.77
2019-01-03T19:02:28.547Z,100310.72
2019-01-03T19:04:57.221Z,100323.84
2019-01-03T19:07:25.573Z,100323.88
2019-01-03T19:09:53.718Z,100325.58
2019-01-03T19:12:21.769Z,100329.80
2019-01-03T19:14:49.920Z,100338.27
2019-01-03T19:17:18.272Z,100340.38
2019-01-03T19:19:47.285Z,100340.43
2019-01-03T19:22:17.754Z,100344.24
2019-01-03T19:24:46.453Z,100353.05
2019-01-03T19:27:14.578Z,100345.37
2019-01-03T19:29:42.815Z,100339.42
2019-01-03T19:32:11.125Z,100334.84
2019-01-03T19:34:39.409Z,100338.27
2019-01-03T19:37:07.881Z,100340.83
2019-01-03T19:39:35.790Z,100355.97
2019-01-03T19:42:03.786Z,100340.73
2019-01-03T19:44:32.448Z,100337.40
2019-01-03T19:47:00.509Z,100336.12
2019-01-03T19:49:28.459Z,100339.41
2019-01-03T19:51:57.575Z,100338.59
2019-01-03T19:54:25.713Z,100330.92
2019-01-03T19:56:53.713Z,100327.00
2019-01-03T19:59:21.674Z,100323.08
2019-01-03T20:01:49.622Z,100328.09
2019-01-03T20:04:18.676Z,100326.97
2019-01-03T20:06:49.644Z,100321.41
2019-01-03T20:09:17.673Z,100319.23
2019-01-03T20:11:46.511Z,100310.03
2019-01-03T20:14:15.322Z,100310.15
2019-01-03T20:16:44.378Z,100301.65
2019-01-03T20:19:12.495Z,100304.69
2019-01-03T20:21:40.684Z,100300.88
2019-01-03T20:24:08.904Z,100299.59
2019-01-03T20:26:36.963Z,100297.99
2019-01-03T20:29:04.961Z,100307.32
2019-01-03T20:31:32.923Z,100297.64
2019-01-03T20:34:08.947Z,100292.58
2019-01-03T20:36:39.749Z,100303.97
2019-01-03T20:39:10.374Z,100309.50
2019-01-03T20:41:38.707Z,100306.50
2019-01-03T20:44:08.555Z,100316.66
2019-01-03T20:46:42.908Z,100314.84
2019-01-03T20:49:11.929Z,100323.78
2019-01-03T20:51:43.104Z,100323.28
2019-01-03T20:54:12.408Z,100319.84
2019-01-03T20:56:40.554Z,100319.46
2019-01-03T20:59:10.158Z,100325.79
2019-01-03T21:01:51.826Z,100322.12
2019-01-03T21:04:24.497Z,100320.89
2019-01-03T21:06:53.892Z,100322.12
2019-01-03T21:09:28.642Z,100312.72
2019-01-03T21:12:13.858Z,100316.12
2019-01-03T21:14:36.537Z,100314.58
2019-01-03T21:17:04.912Z,100308.67
2019-01-03T21:19:34.021Z,100313.69
2019-01-03T21:22:02.397Z,100314.89
2019-01-03T21:24:30.788Z,100317.09
2019-01-03T21:27:25.838Z,100313.33
2019-01-03T21:30:04.282Z,100312.95
2019-01-03T21:32:33.962Z,100304.06
2019-01-03T21:35:02.249Z,100310.86
2019-01-03T21:37:31.292Z,100317.20
2019-01-03T21:39:59.261Z,100315.55
2019-01-03T21:42:27.206Z,100312.98
2019-01-03T21:44:55.462Z,100311.30
2019-01-03T21:47:23.658Z,100313.00
2019-01-03T21:49:52.003Z,100315.95
2019-01-03T21:52:20.744Z,100318.92
2019-01-03T21:54:49.768Z,100318.09
2019-01-03T21:57:18.160Z,100324.46
2019-01-03T21:59:46.097Z,100328.25
2019-01-03T22:02:14.075Z,100321.45
2019-01-03T22:04:43.071Z,100320.61
2019-01-03T22:07:11.163Z,100321.42
2019-01-03T22:09:39.882Z,100316.81
2019-01-03T22:12:07.868Z,100318.91
2019-01-03T22:14:36.407Z,100313.80
2019-01-03T22:17:04.952Z,100320.94
2019-01-03T22:19:32.959Z,100321.39
2019-01-03T22:22:01.879Z,100316.75
2019-01-03T22:24:31.684Z,100319.72
2019-01-03T22:26:59.764Z,100318.80
2019-01-03T22:29:28.566Z,100320.93
2019-01-03T22:31:58.524Z,100322.57
2019-01-03T22:34:26.914Z,100326.84
2019-01-03T22:36:54.979Z,100326.91
2019-01-03T22:39:23.480Z,100334.09
2019-01-03T22:41:51.547Z,100330.18
2019-01-03T22:44:19.695Z,100327.27
2019-01-03T22:46:47.886Z,100330.14
2019-01-03T22:49:16.296Z,100335.72
2019-01-03T22:51:44.356Z,100334.91
2019-01-03T22:54:12.771Z,100339.95
2019-01-03T22:56:41.290Z,100340.42
2019-01-03T22:59:09.294Z,100335.34
2019-01-03T23:01:37.643Z,100336.59
2019-01-03T23:04:06.844Z,100336.16
2019-01-03T23:06:35.891Z,100347.58
2019-01-03T23:09:06.453Z,100346.33
2019-01-03T23:11:37.016Z,100345.78
2019-01-03T23:14:06.361Z,100343.20
2019-01-03T23:16:35.558Z,100338.14
2019-01-03T23:19:05.507Z,100339.96
2019-01-03T23:21:33.971Z,100344.19
2019-01-03T23:24:01.923Z,100347.21
2019-01-03T23:26:31.864Z,100339.14
2019-01-03T23:29:02.502Z,100337.86
2019-01-03T23:31:31.251Z,100348.36
2019-01-03T23:33:59.846Z,100346.65
2019-01-03T23:36:27.784Z,100350.45
2019-01-03T23:38:56.040Z,100348.73
2019-01-03T23:41:24.162Z,100355.60
2019-01-03T23:43:52.749Z,100356.48
2019-01-03T23:46:20.714Z,100362.00
2019-01-03T23:48:48.635Z,100364.09
2019-01-03T23:51:16.742Z,100369.22
2019-01-03T23:53:44.725Z,100358.63
2019-01-03T23:56:13.044Z,100353.52
2019-01-03T23:58:41.420Z,100362.87
